createdAt,value
2019-03-04T00:01:36.116Z,64.58
2019-03-04T00:04:07.777Z,64.55
2019-03-04T00:06:41.759Z,64.64
2019-03-04T00:09:13.705Z,64.72
2019-03-04T00:11:45.321Z,64.81
2019-03-04T00:14:21.674Z,64.96
2019-03-04T00:16:53.238Z,65.21
2019-03-04T00:19:24.839Z,65.14
2019-03-04T00:21:56.415Z,65.05
2019-03-04T00:24:30.064Z,64.94
2019-03-04T00:27:07.101Z,64.86
2019-03-04T00:29:38.685Z,64.81
2019-03-04T00:32:10.239Z,64.74
2019-03-04T00:34:41.809Z,64.10
2019-03-04T00:37:13.360Z,63.99
2019-03-04T00:39:44.912Z,64.93
2019-03-04T00:42:17.584Z,65.21
2019-03-04T00:44:50.332Z,65.69
2019-03-04T00:47:21.900Z,65.64
2019-03-04T00:49:57.043Z,66.09
2019-03-04T00:52:28.815Z,66.39
2019-03-04T00:55:00.425Z,66.68
2019-03-04T00:57:31.986Z,66.55
2019-03-04T01:00:03.601Z,66.62
2019-03-04T01:02:36.841Z,66.33
2019-03-04T01:05:08.456Z,67.12
2019-03-04T01:07:40.031Z,67.49
2019-03-04T01:10:13.817Z,67.49
2019-03-04T01:12:45.704Z,67.66
2019-03-04T01:15:19.171Z,67.92
2019-03-04T01:17:54.597Z,67.80
2019-03-04T01:20:26.173Z,68.03
2019-03-04T01:22:57.739Z,68.34
2019-03-04T01:25:29.314Z,68.52
2019-03-04T01:28:00.903Z,69.00
2019-03-04T01:30:32.451Z,69.05
2019-03-04T01:33:04.026Z,69.21
2019-03-04T01:35:35.583Z,69.39
2019-03-04T01:38:07.166Z,69.84
2019-03-04T01:40:41.035Z,70.00
2019-03-04T01:43:12.602Z,69.88
2019-03-04T01:45:44.175Z,69.85
2019-03-04T01:48:15.741Z,70.00
2019-03-04T01:50:47.714Z,70.70
2019-03-04T01:53:19.285Z,70.79
2019-03-04T01:55:54.024Z,71.01
2019-03-04T01:58:25.626Z,71.17
2019-03-04T02:00:58.905Z,71.34
2019-03-04T02:03:31.602Z,71.04
2019-03-04T02:06:07.315Z,71.34
2019-03-04T02:08:41.743Z,71.57
2019-03-04T02:11:18.456Z,71.86
2019-03-04T02:13:51.414Z,71.78
2019-03-04T02:16:23.118Z,71.81
2019-03-04T02:18:56.023Z,71.78
2019-03-04T02:21:29.345Z,72.03
2019-03-04T02:24:35.855Z,71.86
2019-03-04T02:27:07.534Z,71.75
2019-03-04T02:29:39.124Z,71.67
2019-03-04T02:32:13.231Z,71.54
2019-03-04T02:34:44.809Z,71.68
2019-03-04T02:37:20.074Z,71.75
2019-03-04T02:39:51.627Z,72.37
2019-03-04T02:42:24.818Z,72.43
2019-03-04T02:44:57.821Z,72.43
2019-03-04T02:47:29.420Z,72.40
2019-03-04T02:50:00.982Z,72.54
2019-03-04T02:52:32.711Z,72.71
2019-03-04T02:55:04.569Z,72.50
2019-03-04T02:57:37.895Z,72.82
2019-03-04T03:00:11.024Z,72.46
2019-03-04T03:02:42.660Z,70.81
2019-03-04T03:05:17.104Z,70.56
2019-03-04T03:07:48.671Z,70.72
2019-03-04T03:10:22.370Z,71.00
2019-03-04T03:12:53.945Z,71.33
2019-03-04T03:15:25.590Z,71.46
2019-03-04T03:17:57.175Z,70.85
2019-03-04T03:20:28.750Z,70.99
2019-03-04T03:23:00.342Z,70.66
2019-03-04T03:25:32.991Z,69.59
2019-03-04T03:28:04.569Z,69.24
2019-03-04T03:30:39.299Z,71.31
2019-03-04T03:33:10.945Z,71.84
2019-03-04T03:35:42.501Z,72.08
2019-03-04T03:38:14.082Z,72.21
2019-03-04T03:40:45.644Z,72.29
2019-03-04T03:43:18.282Z,72.36
2019-03-04T03:45:49.813Z,72.43
2019-03-04T03:48:21.389Z,72.57
2019-03-04T03:50:52.972Z,72.43
2019-03-04T03:53:24.552Z,72.69
2019-03-04T03:55:56.138Z,72.61
2019-03-04T03:58:27.676Z,72.61
2019-03-04T04:01:01.027Z,72.61
2019-03-04T04:03:32.564Z,72.56
2019-03-04T04:06:04.178Z,72.67
2019-03-04T04:08:35.730Z,72.85
2019-03-04T04:11:07.279Z,72.80
2019-03-04T04:13:42.964Z,72.67
2019-03-04T04:16:14.551Z,72.66
2019-03-04T04:18:46.127Z,72.79
2019-03-04T04:21:17.705Z,72.85
2019-03-04T04:23:49.277Z,72.50
2019-03-04T04:26:24.055Z,68.69
2019-03-04T04:29:10.881Z,67.47
2019-03-04T04:31:43.203Z,64.73
2019-03-04T04:34:14.834Z,63.96
2019-03-04T04:36:46.485Z,64.75
2019-03-04T04:39:18.049Z,64.70
2019-03-04T04:41:49.624Z,64.52
2019-03-04T04:44:21.178Z,62.31
2019-03-04T04:47:00.893Z,62.80
2019-03-04T04:49:34.385Z,66.89
2019-03-04T04:52:08.429Z,68.68
2019-03-04T04:54:41.060Z,69.56
2019-03-04T04:57:12.624Z,70.19
2019-03-04T04:59:44.198Z,70.58
2019-03-04T05:02:15.751Z,71.26
2019-03-04T05:04:47.334Z,71.46
2019-03-04T05:07:19.875Z,71.62
2019-03-04T05:09:51.407Z,71.62
2019-03-04T05:12:22.963Z,71.76
2019-03-04T05:14:54.509Z,71.55
2019-03-04T05:17:26.034Z,71.76
2019-03-04T05:19:57.587Z,71.52
2019-03-04T05:22:30.336Z,71.90
2019-03-04T05:25:01.930Z,71.63
2019-03-04T05:27:33.471Z,71.22
2019-03-04T05:30:05.729Z,72.20
2019-03-04T05:32:37.278Z,73.01
2019-03-04T05:35:08.843Z,73.42
2019-03-04T05:37:40.401Z,73.70
2019-03-04T05:40:14.868Z,73.59
2019-03-04T05:42:46.387Z,73.91
2019-03-04T05:45:18.067Z,74.16
2019-03-04T05:47:49.626Z,74.51
2019-03-04T05:50:24.288Z,74.65
2019-03-04T05:52:58.615Z,74.77
2019-03-04T05:55:30.152Z,74.59
2019-03-04T05:58:01.720Z,74.80
2019-03-04T06:00:38.189Z,74.91
2019-03-04T06:03:10.765Z,74.81
2019-03-04T06:05:42.301Z,74.82
2019-03-04T06:08:14.035Z,74.95
2019-03-04T06:10:45.570Z,74.90
2019-03-04T06:13:17.132Z,74.90
2019-03-04T06:15:48.702Z,74.63
2019-03-04T06:18:20.273Z,74.58
2019-03-04T06:20:51.808Z,74.68
2019-03-04T06:23:23.392Z,74.50
2019-03-04T06:25:55.563Z,74.59
2019-03-04T06:28:27.148Z,74.19
2019-03-04T06:30:58.702Z,74.48
2019-03-04T06:33:31.812Z,74.56
2019-03-04T06:36:03.371Z,74.33
2019-03-04T06:38:34.953Z,74.59
2019-03-04T06:41:06.508Z,74.81
2019-03-04T06:43:38.190Z,74.77
2019-03-04T06:46:09.727Z,74.76
2019-03-04T06:48:41.371Z,74.79
2019-03-04T06:51:21.579Z,74.78
2019-03-04T06:54:16.184Z,74.69
2019-03-04T06:57:05.727Z,74.68
2019-03-04T07:00:19.751Z,74.57
2019-03-04T07:02:51.311Z,74.23
2019-03-04T07:05:53.876Z,74.32
2019-03-04T07:09:14.081Z,74.35
2019-03-04T07:11:53.204Z,74.00
2019-03-04T07:14:24.764Z,73.99
2019-03-04T07:16:56.328Z,74.05
2019-03-04T07:19:34.102Z,73.87
2019-03-04T07:22:05.662Z,73.24
2019-03-04T07:24:37.234Z,73.78
2019-03-04T07:27:08.791Z,73.31
2019-03-04T07:29:41.433Z,73.16
2019-03-04T07:32:12.982Z,73.60
2019-03-04T07:34:44.538Z,73.83
2019-03-04T07:37:18.967Z,73.44
2019-03-04T07:39:51.584Z,73.42
2019-03-04T07:42:25.877Z,73.19
2019-03-04T07:44:57.426Z,72.23
2019-03-04T07:47:32.009Z,70.57
2019-03-04T07:50:09.126Z,72.19
2019-03-04T07:52:40.436Z,72.37
2019-03-04T07:55:12.103Z,70.77
2019-03-04T07:57:43.693Z,69.67
2019-03-04T08:00:24.858Z,67.69
2019-03-04T08:02:58.034Z,70.23
2019-03-04T08:05:33.529Z,70.97
2019-03-04T08:08:07.523Z,70.23
2019-03-04T08:11:52.848Z,66.61
2019-03-04T08:14:26.255Z,62.73
2019-03-04T08:16:59.545Z,61.87
2019-03-04T08:19:34.212Z,62.43
2019-03-04T08:22:05.780Z,63.28
2019-03-04T08:24:37.365Z,63.66
2019-03-04T08:27:10.605Z,63.28
2019-03-04T08:29:45.322Z,62.97
2019-03-04T08:32:20.770Z,63.16
2019-03-04T08:34:53.866Z,63.31
2019-03-04T08:37:25.414Z,64.10
2019-03-04T08:39:56.991Z,64.50
2019-03-04T08:42:28.567Z,65.62
2019-03-04T08:45:00.315Z,67.26
2019-03-04T08:47:31.806Z,67.58
2019-03-04T08:50:03.721Z,68.95
2019-03-04T08:52:35.303Z,68.87
2019-03-04T08:55:07.639Z,69.11
2019-03-04T08:57:39.798Z,70.17
2019-03-04T09:00:15.914Z,71.56
2019-03-04T09:02:47.501Z,71.65
2019-03-04T09:05:19.190Z,72.01
2019-03-04T09:07:50.770Z,71.49
2019-03-04T09:10:30.612Z,69.33
2019-03-04T09:13:02.272Z,69.39
2019-03-04T09:15:33.873Z,67.86
2019-03-04T09:18:05.421Z,68.06
2019-03-04T09:20:36.999Z,67.15
2019-03-04T09:23:08.546Z,65.84
2019-03-04T09:25:44.530Z,66.05
2019-03-04T09:28:16.130Z,65.31
2019-03-04T09:30:47.703Z,63.82
2019-03-04T09:33:19.281Z,62.82
2019-03-04T09:35:50.885Z,62.76
2019-03-04T09:38:22.451Z,62.14
2019-03-04T09:40:54.027Z,62.23
2019-03-04T09:43:25.590Z,62.50
2019-03-04T09:45:57.143Z,62.99
2019-03-04T09:48:28.810Z,62.27
2019-03-04T09:51:00.418Z,62.28
2019-03-04T09:53:39.109Z,61.87
2019-03-04T09:56:06.278Z,62.30
2019-03-04T09:58:37.842Z,62.27
2019-03-04T10:01:30.676Z,61.89
2019-03-04T10:04:59.543Z,61.52
2019-03-04T10:08:39.894Z,61.09
2019-03-04T10:12:12.421Z,61.60
2019-03-04T10:15:28.669Z,61.05
2019-03-04T10:18:43.381Z,61.24
2019-03-04T10:21:42.830Z,60.65
2019-03-04T10:24:41.672Z,60.84
2019-03-04T10:28:07.875Z,60.77
2019-03-04T10:31:37.973Z,60.07
2019-03-04T10:34:43.799Z,59.96
2019-03-04T10:38:01.813Z,60.13
2019-03-04T10:41:15.933Z,59.88
2019-03-04T10:44:44.543Z,60.40
2019-03-04T10:47:17.077Z,60.79
2019-03-04T10:49:48.709Z,61.29
2019-03-04T10:52:22.441Z,61.22
2019-03-04T10:54:54.127Z,61.33
2019-03-04T10:57:25.801Z,61.60
2019-03-04T10:59:57.548Z,62.39
2019-03-04T11:02:29.111Z,62.31
2019-03-04T11:05:03.432Z,61.42
2019-03-04T11:07:35.007Z,62.04
2019-03-04T11:10:06.902Z,61.72
2019-03-04T11:12:38.521Z,61.89
2019-03-04T11:15:21.846Z,62.48
2019-03-04T11:17:54.485Z,61.74
2019-03-04T11:20:26.197Z,61.98
2019-03-04T11:22:59.526Z,60.75
2019-03-04T11:25:31.579Z,60.67
2019-03-04T11:28:03.183Z,61.30
2019-03-04T11:30:34.842Z,60.92
2019-03-04T11:33:06.617Z,61.66
2019-03-04T11:35:38.305Z,61.83
2019-03-04T11:38:37.421Z,62.52
2019-03-04T11:41:12.821Z,61.47
2019-03-04T11:43:45.445Z,60.90
2019-03-04T11:46:20.142Z,61.51
2019-03-04T11:48:54.800Z,60.97
2019-03-04T11:51:26.390Z,61.56
2019-03-04T11:53:57.946Z,60.70
2019-03-04T11:56:29.530Z,60.62
2019-03-04T11:59:01.142Z,61.08
2019-03-04T12:01:50.887Z,61.20
2019-03-04T12:04:22.458Z,61.02
2019-03-04T12:06:54.059Z,60.69
2019-03-04T12:09:25.623Z,60.27
2019-03-04T12:11:58.865Z,58.87
2019-03-04T12:14:30.480Z,58.33
2019-03-04T12:17:02.068Z,59.02
2019-03-04T12:19:35.670Z,58.08
2019-03-04T12:22:07.261Z,58.27
2019-03-04T12:24:38.866Z,57.05
2019-03-04T12:27:10.494Z,57.60
2019-03-04T12:29:42.060Z,57.47
2019-03-04T12:32:25.159Z,57.56
2019-03-04T12:34:56.702Z,57.94
2019-03-04T12:37:28.329Z,58.70
2019-03-04T12:40:01.592Z,58.34
2019-03-04T12:42:34.799Z,58.91
2019-03-04T12:45:08.275Z,59.78
2019-03-04T12:47:39.973Z,59.16
2019-03-04T12:50:16.400Z,59.54
2019-03-04T12:52:48.076Z,59.71
2019-03-04T12:55:19.679Z,60.04
2019-03-04T12:57:51.266Z,59.74
2019-03-04T13:00:23.627Z,59.76
2019-03-04T13:02:58.129Z,59.98
2019-03-04T13:05:28.804Z,59.24
2019-03-04T13:08:00.387Z,58.47
2019-03-04T13:10:32.041Z,57.69
2019-03-04T13:13:03.651Z,58.24
2019-03-04T13:15:35.251Z,57.53
2019-03-04T13:18:07.079Z,57.45
2019-03-04T13:20:38.752Z,57.17
2019-03-04T13:23:10.491Z,56.23
2019-03-04T13:25:42.070Z,57.42
2019-03-04T13:28:13.686Z,57.79
2019-03-04T13:30:45.224Z,56.71
2019-03-04T13:33:16.798Z,54.98
2019-03-04T13:35:48.568Z,55.93
2019-03-04T13:38:20.345Z,56.32
2019-03-04T13:40:51.926Z,55.28
2019-03-04T13:43:23.509Z,55.48
2019-03-04T13:45:55.067Z,54.99
2019-03-04T13:48:26.684Z,55.22
2019-03-04T13:50:58.235Z,54.42
2019-03-04T13:53:29.899Z,54.92
2019-03-04T13:56:01.463Z,53.96
2019-03-04T13:58:33.035Z,54.74
2019-03-04T14:01:04.850Z,55.00
2019-03-04T14:03:36.459Z,54.38
2019-03-04T14:06:08.047Z,54.16
2019-03-04T14:08:39.634Z,52.21
2019-03-04T14:11:11.204Z,52.14
2019-03-04T14:13:42.804Z,52.98
2019-03-04T14:16:14.967Z,51.15
2019-03-04T14:18:46.530Z,50.00
2019-03-04T14:21:18.094Z,50.60
2019-03-04T14:23:49.714Z,49.10
2019-03-04T14:26:21.494Z,48.35
2019-03-04T14:28:53.071Z,47.82
2019-03-04T14:31:24.685Z,48.37
2019-03-04T14:33:56.288Z,48.19
2019-03-04T14:36:27.883Z,46.20
2019-03-04T14:38:59.514Z,47.00
2019-03-04T14:41:31.061Z,46.73
2019-03-04T14:44:02.665Z,45.99
2019-03-04T14:46:34.263Z,45.98
2019-03-04T14:49:09.596Z,46.28
2019-03-04T14:51:41.204Z,46.89
2019-03-04T14:54:12.791Z,47.27
2019-03-04T14:56:44.367Z,48.05
2019-03-04T14:59:15.946Z,47.94
2019-03-04T15:01:49.212Z,48.12
2019-03-04T15:04:20.802Z,48.62
2019-03-04T15:06:52.419Z,47.11
2019-03-04T15:09:24.023Z,47.11
2019-03-04T15:11:55.748Z,47.29
2019-03-04T15:14:27.565Z,47.29
2019-03-04T15:17:03.319Z,47.15
2019-03-04T15:19:32.480Z,47.37
2019-03-04T15:22:04.093Z,46.21
2019-03-04T15:24:35.678Z,47.37
2019-03-04T15:27:10.056Z,48.21
2019-03-04T15:29:41.658Z,48.59
2019-03-04T15:32:13.383Z,48.03
2019-03-04T15:34:44.952Z,48.92
2019-03-04T15:37:16.543Z,49.26
2019-03-04T15:39:48.141Z,49.69
2019-03-04T15:42:19.751Z,49.49
2019-03-04T15:44:51.327Z,50.37
2019-03-04T15:47:23.086Z,50.17
2019-03-04T15:49:54.642Z,54.76
2019-03-04T15:52:26.261Z,64.50
2019-03-04T15:54:57.830Z,69.84
2019-03-04T15:57:29.835Z,72.98
2019-03-04T16:00:02.555Z,75.12
2019-03-04T16:02:34.685Z,76.37
2019-03-04T16:05:08.057Z,76.81
2019-03-04T16:07:39.692Z,77.07
2019-03-04T16:10:12.566Z,76.79
2019-03-04T16:12:44.623Z,75.90
2019-03-04T16:15:18.513Z,75.65
2019-03-04T16:17:51.318Z,76.08
2019-03-04T16:20:24.510Z,76.26
2019-03-04T16:22:56.247Z,76.20
2019-03-04T16:25:28.514Z,76.48
2019-03-04T16:28:17.734Z,76.44
2019-03-04T16:30:52.948Z,77.50
2019-03-04T16:33:25.669Z,76.64
2019-03-04T16:35:59.473Z,76.39
2019-03-04T16:38:31.142Z,76.93
2019-03-04T16:41:02.796Z,76.59
2019-03-04T16:43:34.360Z,75.84
2019-03-04T16:46:05.951Z,76.52
2019-03-04T16:48:37.506Z,75.82
2019-03-04T16:51:09.222Z,75.83
2019-03-04T16:53:40.780Z,75.43
2019-03-04T16:56:13.617Z,76.11
2019-03-04T16:58:45.198Z,76.09
2019-03-04T17:01:16.786Z,76.30
2019-03-04T17:03:48.459Z,76.43
2019-03-04T17:06:20.169Z,77.36
2019-03-04T17:08:51.719Z,77.17
2019-03-04T17:11:23.293Z,77.89
2019-03-04T17:13:54.893Z,78.92
2019-03-04T17:16:26.490Z,79.82
2019-03-04T17:18:58.070Z,80.71
2019-03-04T17:21:29.666Z,81.12
2019-03-04T17:24:01.643Z,81.20
2019-03-04T17:26:33.496Z,78.89
2019-03-04T17:29:05.244Z,79.71
2019-03-04T17:31:36.823Z,79.53
2019-03-04T17:34:11.593Z,80.64
2019-03-04T17:36:44.255Z,80.66
2019-03-04T17:39:16.449Z,80.93
2019-03-04T17:41:48.210Z,81.70
2019-03-04T17:44:24.767Z,82.63
2019-03-04T17:46:56.426Z,82.95
2019-03-04T17:49:28.078Z,83.48
2019-03-04T17:51:59.902Z,83.93
2019-03-04T17:54:31.505Z,83.87
2019-03-04T17:57:03.105Z,83.33
2019-03-04T17:59:34.725Z,83.00
2019-03-04T18:02:06.379Z,82.44
2019-03-04T18:04:39.442Z,82.10
2019-03-04T18:07:11.016Z,82.29
2019-03-04T18:09:42.600Z,82.08
2019-03-04T18:12:15.249Z,81.90
2019-03-04T18:14:46.873Z,81.36
2019-03-04T18:17:18.463Z,81.39
2019-03-04T18:19:51.150Z,81.17
2019-03-04T18:22:22.720Z,81.08
2019-03-04T18:24:54.327Z,80.48
2019-03-04T18:27:31.946Z,79.55
2019-03-04T18:31:18.679Z,78.87
2019-03-04T18:34:40.141Z,77.14
2019-03-04T18:38:05.391Z,76.97
2019-03-04T18:41:58.997Z,75.57
2019-03-04T18:45:33.607Z,75.28
2019-03-04T18:48:53.824Z,75.16
2019-03-04T18:51:26.067Z,75.75
2019-03-04T18:54:04.819Z,75.04
2019-03-04T18:56:36.497Z,74.74
2019-03-04T18:59:09.215Z,74.72
2019-03-04T19:01:40.919Z,74.94
2019-03-04T19:04:12.624Z,75.06
2019-03-04T19:06:44.359Z,75.93
2019-03-04T19:09:16.115Z,75.70
2019-03-04T19:11:47.709Z,75.75
2019-03-04T19:14:19.314Z,75.55
2019-03-04T19:16:50.921Z,75.29
2019-03-04T19:19:22.543Z,74.89
2019-03-04T19:21:54.141Z,74.42
2019-03-04T19:24:25.802Z,74.84
2019-03-04T19:26:57.450Z,73.94
2019-03-04T19:29:29.245Z,74.44
2019-03-04T19:32:01.182Z,75.08
2019-03-04T19:34:34.080Z,74.83
2019-03-04T19:37:05.863Z,74.65
2019-03-04T19:39:40.599Z,74.24
2019-03-04T19:42:12.202Z,74.73
2019-03-04T19:44:43.826Z,74.71
2019-03-04T19:47:15.434Z,74.33
2019-03-04T19:49:47.040Z,74.72
2019-03-04T19:52:18.724Z,74.76
2019-03-04T19:54:50.342Z,74.87
2019-03-04T19:57:21.917Z,75.04
2019-03-04T19:59:53.596Z,74.71
2019-03-04T20:02:26.334Z,74.68
2019-03-04T20:04:57.966Z,74.75
2019-03-04T20:07:29.647Z,74.32
2019-03-04T20:10:01.471Z,74.61
2019-03-04T20:12:33.235Z,74.15
2019-03-04T20:15:09.152Z,74.23
2019-03-04T20:17:40.855Z,74.76
2019-03-04T20:20:12.829Z,74.45
2019-03-04T20:22:44.478Z,74.32
2019-03-04T20:25:16.145Z,74.26
2019-03-04T20:27:47.800Z,74.61
2019-03-04T20:30:19.458Z,74.33
2019-03-04T20:32:51.079Z,76.00
2019-03-04T20:35:22.923Z,77.80
2019-03-04T20:37:55.507Z,77.40
2019-03-04T20:40:27.109Z,78.98
2019-03-04T20:42:58.881Z,79.37
2019-03-04T20:45:30.528Z,80.51
2019-03-04T20:48:05.106Z,81.49
2019-03-04T20:50:36.953Z,82.15
2019-03-04T20:53:08.625Z,82.28
2019-03-04T20:55:40.220Z,82.87
2019-03-04T20:58:11.864Z,83.22
2019-03-04T21:00:43.463Z,83.17
2019-03-04T21:03:15.056Z,83.51
2019-03-04T21:05:46.753Z,83.35
2019-03-04T21:08:19.632Z,83.69
2019-03-04T21:10:51.358Z,83.69
2019-03-04T21:13:34.856Z,83.56
2019-03-04T21:15:57.518Z,83.90
2019-03-04T21:18:29.145Z,83.74
2019-03-04T21:21:01.361Z,83.78
2019-03-04T21:23:33.003Z,83.82
2019-03-04T21:26:23.644Z,83.19
2019-03-04T21:29:30.571Z,82.99
2019-03-04T21:32:30.871Z,82.53
2019-03-04T21:36:04.357Z,83.28
2019-03-04T21:38:37.664Z,83.81
2019-03-04T21:41:58.967Z,84.45
2019-03-04T21:45:40.248Z,84.91
2019-03-04T21:48:46.578Z,84.63
2019-03-04T21:52:36.055Z,84.67
2019-03-04T21:55:13.929Z,84.59
2019-03-04T21:57:55.774Z,85.14
2019-03-04T22:00:38.062Z,85.19
2019-03-04T22:03:21.856Z,85.21
2019-03-04T22:05:54.815Z,85.39
2019-03-04T22:08:26.779Z,85.58
2019-03-04T22:10:59.172Z,85.78
2019-03-04T22:13:31.033Z,85.75
2019-03-04T22:16:03.187Z,86.19
2019-03-04T22:18:35.111Z,86.52
2019-03-04T22:21:16.246Z,86.29
2019-03-04T22:23:40.588Z,85.71
2019-03-04T22:26:12.559Z,85.30
2019-03-04T22:28:44.151Z,85.39
2019-03-04T22:31:15.829Z,85.60
2019-03-04T22:33:47.363Z,84.89
2019-03-04T22:36:20.339Z,84.90
2019-03-04T22:38:52.993Z,85.06
2019-03-04T22:41:24.765Z,85.08
2019-03-04T22:43:57.419Z,84.91
2019-03-04T22:46:29.368Z,84.57
2019-03-04T22:49:01.126Z,84.08
2019-03-04T22:51:32.748Z,84.12
2019-03-04T22:54:04.339Z,83.98
2019-03-04T22:56:40.560Z,83.76
2019-03-04T22:59:13.617Z,83.50
2019-03-04T23:02:01.810Z,83.13
2019-03-04T23:05:06.972Z,82.90
2019-03-04T23:07:58.620Z,82.48
2019-03-04T23:10:46.441Z,82.66
2019-03-04T23:13:49.931Z,82.42
2019-03-04T23:16:25.811Z,82.67
2019-03-04T23:18:57.373Z,82.15
2019-03-04T23:21:31.138Z,81.51
2019-03-04T23:24:02.734Z,81.68
2019-03-04T23:26:35.854Z,81.40
2019-03-04T23:29:07.446Z,80.97
2019-03-04T23:31:38.999Z,81.07
2019-03-04T23:34:11.619Z,81.01
2019-03-04T23:36:43.282Z,80.98
2019-03-04T23:39:14.866Z,81.11
2019-03-04T23:41:46.825Z,81.57
2019-03-04T23:44:19.358Z,81.40
2019-03-04T23:46:50.907Z,81.82
2019-03-04T23:49:22.456Z,81.74
2019-03-04T23:51:54.040Z,81.51
2019-03-04T23:54:25.605Z,81.61
2019-03-04T23:56:57.206Z,81.99
2019-03-04T23:59:28.772Z,81.74
